createdAt,value
2017-11-16T00:01:33.352Z,20.75
2017-11-16T00:03:10.251Z,21.50
2017-11-16T00:04:47.470Z,19.50
2017-11-16T00:06:24.241Z,16.00
2017-11-16T00:08:01.437Z,19.50
2017-11-16T00:09:37.848Z,20.25
2017-11-16T00:11:14.150Z,20.75
2017-11-16T00:12:51.266Z,18.00
2017-11-16T00:14:28.280Z,18.75
2017-11-16T00:16:06.093Z,18.00
2017-11-16T00:17:45.690Z,16.50
2017-11-16T00:19:23.180Z,18.25
2017-11-16T00:20:59.481Z,21.25
2017-11-16T00:22:37.324Z,17.50
2017-11-16T00:26:01.041Z,16.75
2017-11-16T00:27:38.334Z,16.50
2017-11-16T00:29:15.882Z,18.75
2017-11-16T00:30:52.942Z,17.25
2017-11-16T00:32:30.212Z,17.00
2017-11-16T00:34:07.217Z,18.75
2017-11-16T00:35:43.539Z,15.25
2017-11-16T00:37:20.027Z,16.75
2017-11-16T00:38:56.232Z,15.50
2017-11-16T00:40:33.616Z,16.00
2017-11-16T00:42:10.116Z,18.00
2017-11-16T00:43:46.900Z,15.75
2017-11-16T00:45:26.444Z,16.50
2017-11-16T00:47:03.979Z,16.75
2017-11-16T00:48:40.712Z,19.75
2017-11-16T00:50:18.660Z,15.00
2017-11-16T00:51:55.330Z,16.50
2017-11-16T00:53:32.323Z,18.50
2017-11-16T00:55:08.858Z,15.25
2017-11-16T00:56:45.234Z,15.50
2017-11-16T00:58:21.611Z,17.00
2017-11-16T00:59:58.313Z,15.00
2017-11-16T01:01:35.112Z,16.25
2017-11-16T01:03:12.751Z,15.50
2017-11-16T01:04:49.770Z,16.25
2017-11-16T01:06:29.907Z,16.50
2017-11-16T01:08:08.605Z,15.75
2017-11-16T01:09:45.304Z,15.75
2017-11-16T01:11:22.695Z,20.50
2017-11-16T01:12:59.258Z,19.50
2017-11-16T01:14:35.545Z,17.00
2017-11-16T01:16:14.130Z,16.00
2017-11-16T01:17:51.845Z,15.50
2017-11-16T01:19:29.001Z,16.00
2017-11-16T01:21:05.688Z,16.75
2017-11-16T01:22:42.873Z,15.50
2017-11-16T01:24:19.852Z,16.00
2017-11-16T01:25:56.209Z,15.75
2017-11-16T01:27:33.030Z,12.25
2017-11-16T01:29:09.463Z,19.00
2017-11-16T01:30:46.606Z,18.00
2017-11-16T01:32:23.833Z,17.25
2017-11-16T01:34:01.680Z,18.75
2017-11-16T01:35:38.059Z,14.50
2017-11-16T01:37:15.067Z,17.50
2017-11-16T01:38:52.038Z,15.25
2017-11-16T01:40:28.458Z,16.75
2017-11-16T01:42:04.867Z,17.75
2017-11-16T01:43:41.569Z,19.25
2017-11-16T01:45:20.160Z,18.25
2017-11-16T01:46:56.525Z,18.00
2017-11-16T01:48:33.022Z,19.00
2017-11-16T01:50:09.783Z,17.75
2017-11-16T01:51:46.770Z,19.00
2017-11-16T01:53:23.909Z,20.00
2017-11-16T01:55:00.484Z,18.25
2017-11-16T01:56:37.271Z,18.25
2017-11-16T01:58:13.668Z,20.25
2017-11-16T01:59:50.862Z,17.00
2017-11-16T02:01:27.538Z,20.25
2017-11-16T02:03:04.315Z,18.00
2017-11-16T02:04:41.212Z,19.25
2017-11-16T02:06:17.818Z,18.25
2017-11-16T02:07:55.171Z,20.75
2017-11-16T02:09:31.826Z,19.75
2017-11-16T02:11:14.702Z,20.50
2017-11-16T02:12:51.241Z,20.25
2017-11-16T02:14:28.041Z,20.25
2017-11-16T02:16:05.103Z,17.25
2017-11-16T02:17:41.720Z,19.75
2017-11-16T02:19:18.732Z,16.75
2017-11-16T02:20:55.402Z,21.25
2017-11-16T02:22:41.278Z,15.00
2017-11-16T02:24:22.533Z,15.75
2017-11-16T02:25:59.474Z,16.50
2017-11-16T02:27:37.270Z,18.25
2017-11-16T02:29:13.785Z,17.25
2017-11-16T02:30:50.543Z,18.50
2017-11-16T02:32:27.223Z,19.25
2017-11-16T02:34:04.851Z,15.00
2017-11-16T02:35:41.300Z,16.75
2017-11-16T02:37:17.988Z,17.00
2017-11-16T02:38:54.506Z,17.25
2017-11-16T02:40:31.159Z,17.75
2017-11-16T02:42:10.327Z,18.50
2017-11-16T02:43:46.790Z,19.50
2017-11-16T02:45:26.245Z,16.75
2017-11-16T02:47:04.494Z,14.75
2017-11-16T02:48:43.308Z,16.00
2017-11-16T02:50:22.298Z,19.50
2017-11-16T02:52:01.133Z,17.00
2017-11-16T02:53:37.823Z,18.00
2017-11-16T02:55:15.813Z,17.25
2017-11-16T02:56:52.663Z,19.25
2017-11-16T02:58:29.115Z,17.00
2017-11-16T03:00:06.300Z,16.00
2017-11-16T03:01:43.665Z,19.25
2017-11-16T03:03:20.790Z,17.25
2017-11-16T03:04:57.107Z,19.25
2017-11-16T03:06:33.708Z,19.00
2017-11-16T03:08:12.746Z,15.50
2017-11-16T03:09:49.924Z,19.00
2017-11-16T03:11:26.954Z,15.25
2017-11-16T03:13:04.321Z,17.50
2017-11-16T03:14:40.747Z,16.50
2017-11-16T03:16:18.477Z,15.00
2017-11-16T03:17:55.960Z,19.00
2017-11-16T03:19:32.756Z,17.50
2017-11-16T03:21:09.022Z,16.25
2017-11-16T03:22:46.366Z,15.00
2017-11-16T03:24:23.402Z,18.50
2017-11-16T03:26:00.201Z,18.25
2017-11-16T03:27:36.744Z,21.00
2017-11-16T03:29:15.790Z,21.00
2017-11-16T03:30:52.868Z,23.75
2017-11-16T03:32:30.609Z,20.00
2017-11-16T03:34:08.496Z,18.50
2017-11-16T03:35:45.232Z,18.25
2017-11-16T03:37:22.104Z,20.00
2017-11-16T03:38:58.708Z,18.75
2017-11-16T03:40:35.640Z,15.00
2017-11-16T03:42:12.934Z,18.75
2017-11-16T03:43:49.816Z,22.25
2017-11-16T03:45:27.921Z,16.50
2017-11-16T03:47:04.265Z,17.25
2017-11-16T03:48:42.353Z,15.75
2017-11-16T03:50:19.104Z,17.25
2017-11-16T03:51:55.769Z,17.00
2017-11-16T03:53:33.419Z,19.00
2017-11-16T03:55:09.860Z,16.75
2017-11-16T03:56:46.293Z,20.00
2017-11-16T03:58:23.146Z,15.75
2017-11-16T03:59:59.860Z,17.25
2017-11-16T04:01:36.929Z,19.00
2017-11-16T04:03:13.687Z,19.00
2017-11-16T04:04:51.405Z,20.75
2017-11-16T04:06:28.578Z,19.00
2017-11-16T04:08:05.365Z,22.25
2017-11-16T04:09:41.830Z,20.00
2017-11-16T04:11:21.754Z,23.25
2017-11-16T04:12:59.557Z,19.75
2017-11-16T04:14:36.129Z,21.50
2017-11-16T04:16:13.869Z,18.25
2017-11-16T04:17:50.285Z,21.75
2017-11-16T04:19:29.589Z,17.50
2017-11-16T04:21:06.944Z,19.75
2017-11-16T04:22:45.253Z,20.00
2017-11-16T04:24:23.562Z,19.25
2017-11-16T04:26:02.179Z,20.75
2017-11-16T04:27:39.010Z,17.50
2017-11-16T04:29:15.641Z,17.75
2017-11-16T04:30:52.044Z,21.00
2017-11-16T04:32:31.509Z,21.50
2017-11-16T04:34:08.355Z,22.00
2017-11-16T04:35:44.631Z,20.50
2017-11-16T04:37:21.173Z,21.75
2017-11-16T04:39:08.515Z,21.50
2017-11-16T04:40:47.000Z,23.00
2017-11-16T04:42:27.505Z,22.75
2017-11-16T04:44:06.404Z,21.50
2017-11-16T04:45:44.805Z,21.25
2017-11-16T04:47:22.832Z,22.25
2017-11-16T04:49:01.010Z,23.25
2017-11-16T04:50:39.815Z,19.50
2017-11-16T04:52:19.112Z,21.25
2017-11-16T04:53:57.133Z,19.25
2017-11-16T04:55:35.730Z,19.00
2017-11-16T04:57:13.907Z,17.50
2017-11-16T04:58:52.412Z,22.25
2017-11-16T05:00:31.420Z,26.00
2017-11-16T05:02:11.102Z,17.50
2017-11-16T05:04:14.004Z,19.25
2017-11-16T05:05:52.599Z,21.25
2017-11-16T05:07:30.809Z,16.75
2017-11-16T05:09:09.511Z,17.50
2017-11-16T05:10:48.199Z,17.50
2017-11-16T05:12:26.416Z,15.25
2017-11-16T05:14:05.890Z,18.25
2017-11-16T05:15:44.794Z,21.75
2017-11-16T05:17:27.210Z,19.75
2017-11-16T05:19:06.288Z,10.25
2017-11-16T05:20:44.517Z,17.50
2017-11-16T05:22:23.802Z,21.00
2017-11-16T05:24:02.213Z,21.75
2017-11-16T05:25:42.401Z,24.00
2017-11-16T05:27:20.926Z,20.75
2017-11-16T05:28:59.406Z,22.50
2017-11-16T05:30:38.988Z,23.00
2017-11-16T05:32:18.208Z,16.75
2017-11-16T05:33:56.814Z,20.25
2017-11-16T05:35:36.294Z,23.50
2017-11-16T05:37:16.002Z,16.50
2017-11-16T05:38:56.493Z,20.75
2017-11-16T05:40:35.183Z,22.25
2017-11-16T05:42:13.878Z,24.75
2017-11-16T05:43:55.938Z,22.75
2017-11-16T05:45:37.203Z,22.00
2017-11-16T05:47:15.578Z,22.00
2017-11-16T05:48:56.001Z,22.75
2017-11-16T05:50:35.183Z,22.50
2017-11-16T05:52:13.802Z,22.75
2017-11-16T05:53:54.288Z,23.25
2017-11-16T05:57:06.387Z,24.50
2017-11-16T05:58:46.490Z,23.75
2017-11-16T06:00:26.785Z,23.25
2017-11-16T06:02:05.087Z,25.50
2017-11-16T06:03:43.588Z,18.25
2017-11-16T06:05:21.692Z,19.00
2017-11-16T06:07:00.201Z,21.75
2017-11-16T06:08:39.329Z,22.50
2017-11-16T06:10:19.920Z,21.75
2017-11-16T06:11:58.940Z,16.25
2017-11-16T06:13:37.353Z,28.25
2017-11-16T06:15:18.360Z,24.25
2017-11-16T06:16:58.457Z,25.75
2017-11-16T06:18:37.373Z,24.25
2017-11-16T06:20:16.772Z,21.75
2017-11-16T06:21:57.971Z,29.00
2017-11-16T06:23:37.661Z,26.75
2017-11-16T06:25:18.565Z,24.75
2017-11-16T06:26:57.285Z,24.50
2017-11-16T06:28:36.175Z,24.25
2017-11-16T06:30:16.086Z,17.25
2017-11-16T06:31:56.381Z,24.75
2017-11-16T06:33:34.800Z,32.50
2017-11-16T06:35:13.668Z,23.00
2017-11-16T06:36:53.469Z,27.50
2017-11-16T06:38:32.178Z,27.00
2017-11-16T06:40:11.797Z,33.00
2017-11-16T06:41:49.993Z,34.50
2017-11-16T06:43:28.403Z,28.75
2017-11-16T06:45:07.681Z,22.50
2017-11-16T06:46:46.016Z,32.00
2017-11-16T06:48:24.696Z,31.25
2017-11-16T06:50:02.999Z,36.00
2017-11-16T06:51:41.190Z,32.25
2017-11-16T06:53:19.502Z,32.75
2017-11-16T06:54:59.691Z,30.00
2017-11-16T06:56:36.005Z,28.75
2017-11-16T06:58:12.477Z,35.75
2017-11-16T06:59:50.802Z,30.25
2017-11-16T07:01:30.584Z,24.25
2017-11-16T07:03:09.382Z,31.00
2017-11-16T07:04:47.581Z,34.50
2017-11-16T07:06:26.038Z,26.75
2017-11-16T07:08:04.985Z,31.50
2017-11-16T07:09:43.781Z,30.25
2017-11-16T07:11:22.290Z,30.50
2017-11-16T07:13:03.092Z,32.75
2017-11-16T07:14:43.716Z,30.75
2017-11-16T07:16:20.605Z,33.00
2017-11-16T07:17:57.593Z,24.25
2017-11-16T07:19:34.662Z,30.00
2017-11-16T07:21:13.429Z,31.75
2017-11-16T07:22:59.176Z,28.25
2017-11-16T07:24:38.783Z,35.25
2017-11-16T07:26:17.981Z,35.50
2017-11-16T07:27:56.799Z,34.75
2017-11-16T07:29:35.189Z,32.75
2017-11-16T07:31:13.595Z,30.50
2017-11-16T07:32:53.383Z,21.00
2017-11-16T07:34:31.982Z,32.75
2017-11-16T07:36:11.186Z,32.00
2017-11-16T07:37:50.470Z,34.25
2017-11-16T07:39:29.065Z,33.50
2017-11-16T07:41:08.875Z,36.00
2017-11-16T07:42:47.389Z,47.00
2017-11-16T07:44:26.674Z,38.75
2017-11-16T07:46:06.566Z,40.25
2017-11-16T07:47:47.487Z,35.50
2017-11-16T07:49:26.362Z,36.00
2017-11-16T07:51:06.078Z,37.50
2017-11-16T07:52:47.581Z,36.25
2017-11-16T07:54:27.076Z,33.75
2017-11-16T07:56:05.486Z,37.25
2017-11-16T07:57:44.976Z,35.50
2017-11-16T07:59:23.879Z,39.25
2017-11-16T08:01:02.485Z,42.00
2017-11-16T08:02:42.123Z,38.50
2017-11-16T08:04:21.364Z,35.75
2017-11-16T08:06:01.572Z,33.00
2017-11-16T08:07:41.001Z,38.50
2017-11-16T08:09:19.857Z,37.50
2017-11-16T08:10:58.359Z,40.50
2017-11-16T08:12:41.659Z,36.00
2017-11-16T08:14:21.653Z,35.00
2017-11-16T08:15:59.956Z,34.00
2017-11-16T08:17:43.448Z,35.50
2017-11-16T08:19:23.119Z,38.00
2017-11-16T08:21:03.373Z,34.25
2017-11-16T08:22:41.951Z,33.25
2017-11-16T08:24:22.267Z,38.00
2017-11-16T08:26:03.046Z,33.00
2017-11-16T08:27:43.680Z,37.50
2017-11-16T08:29:21.454Z,39.25
2017-11-16T08:31:02.157Z,37.25
2017-11-16T08:32:39.988Z,34.00
2017-11-16T08:34:21.484Z,47.00
2017-11-16T08:36:04.851Z,38.00
2017-11-16T08:37:59.746Z,37.00
2017-11-16T08:39:39.367Z,37.50
2017-11-16T08:41:20.069Z,38.00
2017-11-16T08:42:56.483Z,35.75
2017-11-16T08:44:32.909Z,31.75
2017-11-16T08:46:12.981Z,35.00
2017-11-16T08:47:54.481Z,36.50
2017-11-16T08:49:33.887Z,35.75
2017-11-16T08:51:14.904Z,39.00
2017-11-16T08:52:54.586Z,33.75
2017-11-16T08:54:34.004Z,39.50
2017-11-16T08:58:16.722Z,39.25
2017-11-16T08:59:53.527Z,37.25
2017-11-16T09:01:32.302Z,19.75
2017-11-16T09:03:17.813Z,26.50
2017-11-16T09:05:00.610Z,25.25
2017-11-16T09:06:38.815Z,17.25
2017-11-16T09:08:15.332Z,34.25
2017-11-16T09:09:54.312Z,37.00
2017-11-16T09:11:31.174Z,41.75
2017-11-16T09:13:12.919Z,30.25
2017-11-16T09:14:52.751Z,30.25
2017-11-16T09:16:29.316Z,29.25
2017-11-16T09:18:06.292Z,20.00
2017-11-16T09:19:51.513Z,26.50
2017-11-16T09:21:31.793Z,34.50
2017-11-16T09:23:14.704Z,21.00
2017-11-16T09:24:53.727Z,41.00
2017-11-16T09:26:32.245Z,27.75
2017-11-16T09:28:20.016Z,41.75
2017-11-16T09:30:01.494Z,25.00
2017-11-16T09:31:42.106Z,24.50
2017-11-16T09:33:18.631Z,20.75
2017-11-16T09:34:58.013Z,15.00
2017-11-16T09:36:36.925Z,18.75
2017-11-16T09:38:16.991Z,21.50
2017-11-16T09:39:55.831Z,24.00
2017-11-16T09:41:34.395Z,11.75
2017-11-16T09:43:15.703Z,27.50
2017-11-16T09:44:56.410Z,31.75
2017-11-16T09:46:35.532Z,25.50
2017-11-16T09:48:14.998Z,27.25
2017-11-16T09:49:55.598Z,27.25
2017-11-16T09:51:34.703Z,18.75
2017-11-16T09:53:13.685Z,15.50
2017-11-16T09:54:52.699Z,18.75
2017-11-16T09:56:33.599Z,21.75
2017-11-16T09:59:49.299Z,32.00
2017-11-16T10:01:27.072Z,35.25
2017-11-16T10:03:07.075Z,23.50
2017-11-16T10:04:46.582Z,23.75
2017-11-16T10:06:27.594Z,28.25
2017-11-16T10:08:07.160Z,21.50
2017-11-16T10:09:46.793Z,30.25
2017-11-16T10:11:27.082Z,16.75
2017-11-16T10:13:03.703Z,17.50
2017-11-16T10:14:42.606Z,29.25
2017-11-16T10:16:30.004Z,25.25
2017-11-16T10:18:08.695Z,31.00
2017-11-16T10:19:47.783Z,27.00
2017-11-16T10:21:29.589Z,34.25
2017-11-16T10:23:07.896Z,40.25
2017-11-16T10:24:46.418Z,37.75
2017-11-16T10:26:25.512Z,35.50
2017-11-16T10:28:04.218Z,37.50
2017-11-16T10:29:42.920Z,41.50
2017-11-16T10:31:22.209Z,36.00
2017-11-16T10:33:00.424Z,36.50
2017-11-16T10:36:14.329Z,37.75
2017-11-16T10:37:52.397Z,36.75
2017-11-16T10:39:29.221Z,32.00
2017-11-16T10:41:08.331Z,35.75
2017-11-16T10:42:46.629Z,34.75
2017-11-16T10:44:26.756Z,26.75
2017-11-16T10:46:08.636Z,33.50
2017-11-16T10:47:45.399Z,38.75
2017-11-16T10:49:23.393Z,32.00
2017-11-16T10:51:00.693Z,29.00
2017-11-16T10:52:40.066Z,36.25
2017-11-16T10:54:20.089Z,37.50
2017-11-16T10:55:59.848Z,33.50
2017-11-16T10:57:40.527Z,30.50
2017-11-16T10:59:19.513Z,30.00
2017-11-16T11:01:00.418Z,37.75
2017-11-16T11:02:39.549Z,39.25
2017-11-16T11:04:18.922Z,35.50
2017-11-16T11:06:00.813Z,33.25
2017-11-16T11:07:40.308Z,24.00
2017-11-16T11:09:19.908Z,40.00
2017-11-16T11:11:02.410Z,30.25
2017-11-16T11:12:45.515Z,36.25
2017-11-16T11:14:23.917Z,28.00
2017-11-16T11:16:04.508Z,32.00
2017-11-16T11:17:44.071Z,30.25
2017-11-16T11:19:22.523Z,31.50
2017-11-16T11:21:00.906Z,35.50
2017-11-16T11:22:39.713Z,35.25
2017-11-16T11:24:22.900Z,22.50
2017-11-16T11:26:01.225Z,25.25
2017-11-16T11:27:41.011Z,30.75
2017-11-16T11:29:20.004Z,32.25
2017-11-16T11:30:59.435Z,29.50
2017-11-16T11:32:37.628Z,31.50
2017-11-16T11:34:17.239Z,30.00
2017-11-16T11:35:56.329Z,29.75
2017-11-16T11:37:35.949Z,31.75
2017-11-16T11:39:17.858Z,30.25
2017-11-16T11:40:57.343Z,36.00
2017-11-16T11:42:39.754Z,35.00
2017-11-16T11:44:19.448Z,32.50
2017-11-16T11:46:03.658Z,37.75
2017-11-16T11:47:42.770Z,37.25
2017-11-16T11:49:21.954Z,37.00
2017-11-16T11:51:03.276Z,30.75
2017-11-16T11:52:41.520Z,36.50
2017-11-16T11:54:18.384Z,38.00
2017-11-16T11:55:54.724Z,33.00
2017-11-16T11:57:35.970Z,38.50
2017-11-16T11:59:15.657Z,39.75
2017-11-16T12:00:54.468Z,32.25
2017-11-16T12:02:34.796Z,33.00
2017-11-16T12:04:12.008Z,37.00
2017-11-16T12:05:51.378Z,32.75
2017-11-16T12:07:29.956Z,31.25
2017-11-16T12:09:08.643Z,36.50
2017-11-16T12:10:49.442Z,35.25
2017-11-16T12:12:30.169Z,35.25
2017-11-16T12:14:15.939Z,33.50
2017-11-16T12:15:55.336Z,37.75
2017-11-16T12:17:33.541Z,35.50
2017-11-16T12:19:13.936Z,32.75
2017-11-16T12:20:58.467Z,34.25
2017-11-16T12:22:38.821Z,32.75
2017-11-16T12:24:19.353Z,34.50
2017-11-16T12:25:57.854Z,36.00
2017-11-16T12:27:37.562Z,36.25
2017-11-16T12:29:17.446Z,37.00
2017-11-16T12:30:56.654Z,39.50
2017-11-16T12:32:35.952Z,37.75
2017-11-16T12:34:18.447Z,34.25
2017-11-16T12:35:59.751Z,31.25
2017-11-16T12:37:40.948Z,32.00
2017-11-16T12:39:24.461Z,37.00
2017-11-16T12:41:02.852Z,32.50
2017-11-16T12:42:42.371Z,39.00
2017-11-16T12:44:21.756Z,32.00
2017-11-16T12:46:00.860Z,34.50
2017-11-16T12:47:40.063Z,36.75
2017-11-16T12:49:28.556Z,36.00
2017-11-16T12:51:08.967Z,36.25
2017-11-16T12:52:52.275Z,37.00
2017-11-16T12:54:32.370Z,34.75
2017-11-16T12:56:13.376Z,35.25
2017-11-16T12:58:04.568Z,34.50
2017-11-16T12:59:43.880Z,34.25
2017-11-16T13:01:21.563Z,39.50
2017-11-16T13:03:06.170Z,31.25
2017-11-16T13:04:46.065Z,36.25
2017-11-16T13:06:26.977Z,33.75
2017-11-16T13:08:05.679Z,39.50
2017-11-16T13:09:45.980Z,36.00
2017-11-16T13:11:24.279Z,37.00
2017-11-16T13:13:02.871Z,39.50
2017-11-16T13:14:41.179Z,31.75
2017-11-16T13:16:22.086Z,39.00
2017-11-16T13:18:00.993Z,37.75
2017-11-16T13:19:40.406Z,33.00
2017-11-16T13:21:19.933Z,29.75
2017-11-16T13:22:59.711Z,36.75
2017-11-16T13:24:39.938Z,38.50
2017-11-16T13:26:23.020Z,33.50
2017-11-16T13:28:01.002Z,39.00
2017-11-16T13:29:43.136Z,33.00
2017-11-16T13:31:23.338Z,20.75
2017-11-16T13:33:04.410Z,31.25
2017-11-16T13:34:45.332Z,32.50
2017-11-16T13:36:24.307Z,37.75
2017-11-16T13:38:09.037Z,29.00
2017-11-16T13:39:48.532Z,33.25
2017-11-16T13:41:27.614Z,29.50
2017-11-16T13:43:07.617Z,37.25
2017-11-16T13:44:52.158Z,26.00
2017-11-16T13:46:37.525Z,25.25
2017-11-16T13:48:21.126Z,26.25
2017-11-16T13:49:59.798Z,32.75
2017-11-16T13:51:41.126Z,34.00
2017-11-16T13:53:20.719Z,37.00
2017-11-16T13:55:08.197Z,35.75
2017-11-16T13:56:47.891Z,37.00
2017-11-16T13:58:28.585Z,32.75
2017-11-16T14:00:12.182Z,35.25
2017-11-16T14:01:51.202Z,37.00
2017-11-16T14:03:31.284Z,39.50
2017-11-16T14:05:10.887Z,34.50
2017-11-16T14:06:51.381Z,37.75
2017-11-16T14:08:30.990Z,39.00
2017-11-16T14:10:09.983Z,36.75
2017-11-16T14:11:49.288Z,37.25
2017-11-16T14:13:27.582Z,38.25
2017-11-16T14:15:07.797Z,40.50
2017-11-16T14:16:47.187Z,32.00
2017-11-16T14:18:26.100Z,36.00
2017-11-16T14:20:04.537Z,32.00
2017-11-16T14:21:42.611Z,33.50
2017-11-16T14:23:21.326Z,32.25
2017-11-16T14:25:01.697Z,39.00
2017-11-16T14:26:40.385Z,32.25
2017-11-16T14:28:18.184Z,36.75
2017-11-16T14:29:57.290Z,35.25
2017-11-16T14:31:35.889Z,37.00
2017-11-16T14:33:14.388Z,33.50
2017-11-16T14:34:52.908Z,34.25
2017-11-16T14:36:33.204Z,33.00
2017-11-16T14:38:14.689Z,37.50
2017-11-16T14:39:53.116Z,35.00
2017-11-16T14:41:32.292Z,38.00
2017-11-16T14:43:11.001Z,33.75
2017-11-16T14:44:50.620Z,37.00
2017-11-16T14:46:30.190Z,37.75
2017-11-16T14:48:12.887Z,38.75
2017-11-16T14:49:52.185Z,39.50
2017-11-16T14:51:30.778Z,35.50
2017-11-16T14:53:11.076Z,36.00
2017-11-16T14:54:49.597Z,38.25
2017-11-16T14:56:30.325Z,36.75
2017-11-16T14:58:09.612Z,35.75
2017-11-16T14:59:49.110Z,35.75
2017-11-16T15:01:27.931Z,37.00
2017-11-16T15:03:06.716Z,36.75
2017-11-16T15:04:45.629Z,38.00
2017-11-16T15:06:24.921Z,39.75
2017-11-16T15:08:13.531Z,44.00
2017-11-16T15:09:50.861Z,36.50
2017-11-16T15:11:29.439Z,46.00
2017-11-16T15:13:19.281Z,44.50
2017-11-16T15:14:59.644Z,42.25
2017-11-16T15:16:39.639Z,43.75
2017-11-16T15:18:18.136Z,38.50
2017-11-16T15:19:57.457Z,38.75
2017-11-16T15:21:38.154Z,39.00
2017-11-16T15:23:18.774Z,42.00
2017-11-16T15:24:57.757Z,38.75
2017-11-16T15:26:40.684Z,37.00
2017-11-16T15:28:30.563Z,36.50
2017-11-16T15:30:11.039Z,36.00
2017-11-16T15:31:54.641Z,38.25
2017-11-16T15:33:33.044Z,34.50
2017-11-16T15:35:13.131Z,33.25
2017-11-16T15:36:55.019Z,28.75
2017-11-16T15:38:34.528Z,36.75
2017-11-16T15:40:18.713Z,38.50
2017-11-16T15:41:58.812Z,36.25
2017-11-16T15:43:38.010Z,34.00
2017-11-16T15:45:20.320Z,35.50
2017-11-16T15:47:01.515Z,36.50
2017-11-16T15:48:40.118Z,35.50
2017-11-16T15:50:17.590Z,38.25
2017-11-16T15:51:57.320Z,34.50
2017-11-16T15:53:38.304Z,37.75
2017-11-16T15:55:18.100Z,35.00
2017-11-16T15:57:00.524Z,35.25
2017-11-16T15:58:43.114Z,32.75
2017-11-16T16:00:26.700Z,34.25
2017-11-16T16:02:07.226Z,34.50
2017-11-16T16:03:50.117Z,35.25
2017-11-16T16:05:31.104Z,35.50
2017-11-16T16:08:55.330Z,36.25
2017-11-16T16:10:34.918Z,29.00
2017-11-16T16:12:14.827Z,34.50
2017-11-16T16:13:53.221Z,33.50
2017-11-16T16:15:32.737Z,38.00
2017-11-16T16:17:11.118Z,31.75
2017-11-16T16:18:50.451Z,33.25
2017-11-16T16:20:29.726Z,37.00
2017-11-16T16:22:13.228Z,36.75
2017-11-16T16:23:51.728Z,39.50
2017-11-16T16:25:30.130Z,38.25
2017-11-16T16:27:10.326Z,36.25
2017-11-16T16:28:49.434Z,37.75
2017-11-16T16:30:34.134Z,38.50
2017-11-16T16:32:19.738Z,37.00
2017-11-16T16:33:59.629Z,37.50
2017-11-16T16:35:40.845Z,34.25
2017-11-16T16:37:21.546Z,34.00
2017-11-16T16:39:00.537Z,35.75
2017-11-16T16:40:37.484Z,33.75
2017-11-16T16:42:16.930Z,38.75
2017-11-16T16:43:57.734Z,35.25
2017-11-16T16:45:36.940Z,33.25
2017-11-16T16:47:16.633Z,36.00
2017-11-16T16:48:53.184Z,33.25
2017-11-16T16:50:31.944Z,33.75
2017-11-16T16:52:16.953Z,32.00
2017-11-16T16:53:55.436Z,38.25
2017-11-16T16:55:34.538Z,36.00
2017-11-16T16:57:14.239Z,36.25
2017-11-16T16:58:52.752Z,36.75
2017-11-16T17:00:34.543Z,37.75
2017-11-16T17:02:18.651Z,31.25
2017-11-16T17:03:58.671Z,35.50
2017-11-16T17:05:37.862Z,38.75
2017-11-16T17:07:16.479Z,31.50
2017-11-16T17:08:53.264Z,36.75
2017-11-16T17:10:31.682Z,34.00
2017-11-16T17:12:10.864Z,34.25
2017-11-16T17:13:49.955Z,33.50
2017-11-16T17:15:29.394Z,32.50
2017-11-16T17:17:09.702Z,37.00
2017-11-16T17:18:48.482Z,33.75
2017-11-16T17:20:29.893Z,31.50
2017-11-16T17:22:09.991Z,29.75
2017-11-16T17:23:47.276Z,31.75
2017-11-16T17:25:26.374Z,36.00
2017-11-16T17:27:07.369Z,32.25
2017-11-16T17:28:46.685Z,33.00
2017-11-16T17:30:26.274Z,31.75
2017-11-16T17:32:13.677Z,30.50
2017-11-16T17:33:52.776Z,27.50
2017-11-16T17:35:31.902Z,34.50
2017-11-16T17:37:19.009Z,34.75
2017-11-16T17:38:58.188Z,31.25
2017-11-16T17:40:36.894Z,31.00
2017-11-16T17:42:16.180Z,34.75
2017-11-16T17:43:54.694Z,32.25
2017-11-16T17:45:33.701Z,27.75
2017-11-16T17:47:13.090Z,31.50
2017-11-16T17:48:51.610Z,27.75
2017-11-16T17:50:28.356Z,33.75
2017-11-16T17:52:07.791Z,29.25
2017-11-16T17:53:46.416Z,30.75
2017-11-16T17:55:25.992Z,30.50
2017-11-16T17:57:06.883Z,29.00
2017-11-16T17:58:46.293Z,31.25
2017-11-16T18:00:34.182Z,27.75
2017-11-16T18:02:13.502Z,31.25
2017-11-16T18:03:52.039Z,32.25
2017-11-16T18:05:32.307Z,29.75
2017-11-16T18:07:11.783Z,28.75
2017-11-16T18:08:51.583Z,28.75
2017-11-16T18:10:32.287Z,30.50
2017-11-16T18:12:12.687Z,29.50
2017-11-16T18:13:50.929Z,28.50
2017-11-16T18:15:31.836Z,29.50
2017-11-16T18:17:21.592Z,32.50
2017-11-16T18:19:00.196Z,27.00
2017-11-16T18:20:38.591Z,32.00
2017-11-16T18:22:17.376Z,30.25
2017-11-16T18:23:57.774Z,29.00
2017-11-16T18:25:36.870Z,30.00
2017-11-16T18:27:14.476Z,33.25
2017-11-16T18:28:52.292Z,29.50
2017-11-16T18:30:30.938Z,30.25
2017-11-16T18:32:10.259Z,29.25
2017-11-16T18:33:49.187Z,31.50
2017-11-16T18:35:27.864Z,26.25
2017-11-16T18:37:07.861Z,25.75
2017-11-16T18:38:48.071Z,25.75
2017-11-16T18:40:26.979Z,28.75
2017-11-16T18:42:09.082Z,28.75
2017-11-16T18:43:47.458Z,24.25
2017-11-16T18:45:26.588Z,24.50
2017-11-16T18:47:07.869Z,29.00
2017-11-16T18:48:45.997Z,28.75
2017-11-16T18:50:25.462Z,37.00
2017-11-16T18:52:05.061Z,28.50
2017-11-16T18:53:48.962Z,28.25
2017-11-16T18:55:27.468Z,25.25
2017-11-16T18:57:06.884Z,29.00
2017-11-16T18:58:43.972Z,27.25
2017-11-16T19:00:23.219Z,27.75
2017-11-16T19:02:01.774Z,27.25
2017-11-16T19:03:41.472Z,29.50
2017-11-16T19:05:20.290Z,25.75
2017-11-16T19:07:01.196Z,34.75
2017-11-16T19:08:40.271Z,35.00
2017-11-16T19:10:19.677Z,41.00
2017-11-16T19:11:56.591Z,29.00
2017-11-16T19:13:37.384Z,35.50
2017-11-16T19:15:19.378Z,35.25
2017-11-16T19:16:59.387Z,33.75
2017-11-16T19:18:38.769Z,32.75
2017-11-16T19:20:17.280Z,42.00
2017-11-16T19:21:56.875Z,27.25
2017-11-16T19:23:37.174Z,24.25
2017-11-16T19:25:15.599Z,26.75
2017-11-16T19:26:54.091Z,31.00
2017-11-16T19:28:32.675Z,34.50
2017-11-16T19:30:14.775Z,37.50
2017-11-16T19:31:55.997Z,34.50
2017-11-16T19:33:35.271Z,30.00
2017-11-16T19:35:14.092Z,38.50
2017-11-16T19:36:54.099Z,31.50
2017-11-16T19:38:34.504Z,33.50
2017-11-16T19:40:20.317Z,30.50
2017-11-16T19:42:00.905Z,35.00
2017-11-16T19:43:39.155Z,25.25
2017-11-16T19:45:18.890Z,27.50
2017-11-16T19:46:56.950Z,26.25
2017-11-16T19:48:35.746Z,31.00
2017-11-16T19:50:16.777Z,32.25
2017-11-16T19:51:55.501Z,33.00
2017-11-16T19:53:39.545Z,29.00
2017-11-16T19:55:24.803Z,32.00
2017-11-16T19:57:04.119Z,30.25
2017-11-16T19:58:42.768Z,28.00
2017-11-16T20:00:23.227Z,29.00
2017-11-16T20:02:08.307Z,24.25
2017-11-16T20:03:47.508Z,27.00
2017-11-16T20:05:27.760Z,26.25
2017-11-16T20:07:07.204Z,24.75
2017-11-16T20:08:46.031Z,27.00
2017-11-16T20:10:26.609Z,32.50
2017-11-16T20:12:06.315Z,29.75
2017-11-16T20:13:47.126Z,27.00
2017-11-16T20:15:27.049Z,32.25
2017-11-16T20:17:08.347Z,30.50
2017-11-16T20:18:47.536Z,32.50
2017-11-16T20:20:26.256Z,26.00
2017-11-16T20:22:05.889Z,22.75
2017-11-16T20:23:47.687Z,27.00
2017-11-16T20:25:29.181Z,23.00
2017-11-16T20:27:06.420Z,32.50
2017-11-16T20:28:46.542Z,31.00
2017-11-16T20:30:25.362Z,33.75
2017-11-16T20:32:13.549Z,32.75
2017-11-16T20:33:53.962Z,34.50
2017-11-16T20:35:33.420Z,33.75
2017-11-16T20:37:12.794Z,30.00
2017-11-16T20:38:52.769Z,35.50
2017-11-16T20:40:32.556Z,32.75
2017-11-16T20:42:11.279Z,29.75
2017-11-16T20:43:50.985Z,29.50
2017-11-16T20:45:54.887Z,37.00
2017-11-16T20:47:36.567Z,37.25
2017-11-16T20:49:17.200Z,39.75
2017-11-16T20:50:58.706Z,33.75
2017-11-16T20:52:38.811Z,29.50
2017-11-16T20:54:19.106Z,35.50
2017-11-16T20:55:58.565Z,29.75
2017-11-16T20:57:36.597Z,28.25
2017-11-16T20:59:15.310Z,30.00
2017-11-16T21:00:57.377Z,29.25
2017-11-16T21:02:36.869Z,30.50
2017-11-16T21:04:16.831Z,35.00
2017-11-16T21:05:56.583Z,29.25
2017-11-16T21:07:45.196Z,33.25
2017-11-16T21:09:26.287Z,35.75
2017-11-16T21:11:06.276Z,26.00
2017-11-16T21:12:43.266Z,34.50
2017-11-16T21:14:22.165Z,34.25
2017-11-16T21:16:02.172Z,42.50
2017-11-16T21:17:45.526Z,41.00
2017-11-16T21:19:25.699Z,31.50
2017-11-16T21:21:04.564Z,32.25
2017-11-16T21:22:46.083Z,32.50
2017-11-16T21:24:27.484Z,29.75
2017-11-16T21:26:06.568Z,31.00
2017-11-16T21:27:45.761Z,31.75
2017-11-16T21:29:24.168Z,30.50
2017-11-16T21:31:09.784Z,29.50